createdAt,value
2018-03-10T00:01:30.686Z,46.17
2018-03-10T00:03:57.949Z,55.37
2018-03-10T00:06:25.220Z,54.27
2018-03-10T00:08:52.698Z,50.00
2018-03-10T00:11:19.972Z,48.97
2018-03-10T00:13:47.237Z,57.30
2018-03-10T00:16:14.526Z,47.10
2018-03-10T00:18:41.817Z,55.67
2018-03-10T00:21:09.086Z,45.77
2018-03-10T00:23:36.372Z,54.20
2018-03-10T00:26:03.656Z,43.23
2018-03-10T00:28:30.953Z,47.90
2018-03-10T00:30:58.212Z,45.60
2018-03-10T00:33:25.476Z,37.97
2018-03-10T00:35:52.765Z,44.73
2018-03-10T00:38:20.029Z,48.93
2018-03-10T00:40:47.331Z,39.67
2018-03-10T00:43:14.586Z,35.37
2018-03-10T00:45:41.863Z,43.43
2018-03-10T00:48:09.134Z,46.30
2018-03-10T00:50:36.425Z,44.20
2018-03-10T00:53:03.689Z,45.33
2018-03-10T00:55:30.977Z,46.83
2018-03-10T00:57:58.248Z,42.43
2018-03-10T01:00:25.533Z,44.63
2018-03-10T01:02:52.793Z,46.43
2018-03-10T01:05:20.071Z,45.90
2018-03-10T01:07:47.336Z,58.87
2018-03-10T01:10:14.613Z,47.67
2018-03-10T01:12:41.889Z,51.10
2018-03-10T01:15:09.164Z,47.97
2018-03-10T01:17:36.445Z,51.20
2018-03-10T01:20:03.709Z,46.30
2018-03-10T01:22:31.014Z,52.17
2018-03-10T01:24:58.272Z,54.30
2018-03-10T01:27:25.560Z,58.30
2018-03-10T01:29:52.827Z,53.57
2018-03-10T01:32:20.109Z,51.23
2018-03-10T01:34:47.375Z,53.40
2018-03-10T01:37:14.640Z,52.80
2018-03-10T01:39:41.932Z,56.20
2018-03-10T01:42:09.196Z,53.47
2018-03-10T01:44:36.487Z,53.03
2018-03-10T01:47:03.752Z,63.77
2018-03-10T01:49:31.041Z,51.07
2018-03-10T01:51:58.309Z,50.33
2018-03-10T01:54:25.584Z,55.40
2018-03-10T01:56:52.885Z,57.03
2018-03-10T01:59:20.156Z,50.47
2018-03-10T02:01:47.430Z,47.53
2018-03-10T02:04:14.716Z,47.77
2018-03-10T02:06:41.976Z,44.93
2018-03-10T02:09:09.261Z,52.23
2018-03-10T02:11:36.530Z,41.17
2018-03-10T02:14:03.817Z,45.53
2018-03-10T02:16:31.081Z,40.33
2018-03-10T02:18:58.365Z,42.33
2018-03-10T02:21:25.628Z,40.60
2018-03-10T02:23:52.912Z,47.67
2018-03-10T02:26:20.181Z,46.00
2018-03-10T02:28:47.444Z,41.33
2018-03-10T02:31:14.726Z,43.67
2018-03-10T02:33:41.989Z,48.17
2018-03-10T02:36:09.274Z,43.20
2018-03-10T02:38:36.536Z,53.73
2018-03-10T02:41:03.829Z,56.03
2018-03-10T02:43:31.092Z,56.10
2018-03-10T02:45:58.380Z,48.03
2018-03-10T02:48:25.644Z,50.33
2018-03-10T02:50:52.928Z,47.40
2018-03-10T02:53:20.196Z,45.50
2018-03-10T02:55:47.484Z,52.53
2018-03-10T02:58:14.744Z,45.67
2018-03-10T03:00:42.026Z,40.50
2018-03-10T03:03:09.291Z,44.10
2018-03-10T03:05:36.578Z,32.50
2018-03-10T03:08:03.846Z,39.93
2018-03-10T03:10:31.120Z,41.70
2018-03-10T03:12:58.405Z,36.07
2018-03-10T03:15:25.674Z,34.97
2018-03-10T03:17:52.986Z,35.00
2018-03-10T03:20:20.250Z,36.40
2018-03-10T03:22:47.522Z,36.70
2018-03-10T03:25:14.801Z,46.63
2018-03-10T03:27:42.083Z,39.40
2018-03-10T03:30:09.366Z,38.67
2018-03-10T03:32:36.649Z,46.37
2018-03-10T03:35:03.917Z,42.07
2018-03-10T03:37:31.196Z,43.70
2018-03-10T03:39:58.465Z,44.00
2018-03-10T03:42:25.784Z,44.90
2018-03-10T03:44:53.040Z,43.43
2018-03-10T03:47:20.305Z,40.57
2018-03-10T03:49:47.588Z,51.17
2018-03-10T03:52:14.853Z,55.80
2018-03-10T03:54:42.138Z,43.63
2018-03-10T03:57:09.410Z,44.13
2018-03-10T03:59:36.703Z,46.07
2018-03-10T04:02:03.963Z,43.80
2018-03-10T04:04:31.245Z,43.10
2018-03-10T04:06:58.511Z,42.30
2018-03-10T04:09:25.789Z,49.20
2018-03-10T04:11:53.064Z,44.00
2018-03-10T04:14:20.341Z,45.40
2018-03-10T04:16:47.600Z,46.03
2018-03-10T04:19:14.888Z,42.07
2018-03-10T04:21:42.157Z,42.40
2018-03-10T04:24:09.417Z,50.03
2018-03-10T04:26:36.709Z,44.00
2018-03-10T04:29:03.968Z,42.00
2018-03-10T04:31:31.253Z,49.10
2018-03-10T04:33:58.514Z,48.23
2018-03-10T04:36:25.805Z,40.23
2018-03-10T04:38:53.066Z,44.10
2018-03-10T04:41:20.371Z,45.73
2018-03-10T04:43:47.628Z,37.80
2018-03-10T04:46:14.912Z,40.33
2018-03-10T04:48:42.176Z,40.73
2018-03-10T04:51:09.458Z,44.00
2018-03-10T04:53:36.726Z,43.57
2018-03-10T04:56:04.011Z,46.40
2018-03-10T04:58:31.268Z,42.70
2018-03-10T05:00:58.552Z,39.30
2018-03-10T05:03:25.825Z,39.77
2018-03-10T05:05:53.111Z,36.73
2018-03-10T05:08:20.383Z,41.93
2018-03-10T05:10:47.674Z,41.30
2018-03-10T05:13:14.941Z,42.07
2018-03-10T05:15:42.226Z,35.70
2018-03-10T05:18:09.520Z,43.13
2018-03-10T05:20:36.779Z,41.67
2018-03-10T05:23:04.068Z,46.43
2018-03-10T05:25:31.333Z,37.67
2018-03-10T05:27:58.628Z,40.53
2018-03-10T05:30:25.912Z,38.87
2018-03-10T05:32:53.197Z,37.90
2018-03-10T05:35:20.467Z,43.93
2018-03-10T05:37:47.744Z,37.13
2018-03-10T05:40:15.012Z,42.20
2018-03-10T05:42:42.298Z,36.47
2018-03-10T05:45:09.559Z,40.00
2018-03-10T05:47:36.845Z,39.27
2018-03-10T05:50:04.137Z,34.80
2018-03-10T05:52:31.563Z,37.03
2018-03-10T05:54:58.889Z,37.47
2018-03-10T05:57:26.151Z,34.03
2018-03-10T05:59:53.433Z,35.53
2018-03-10T06:02:20.690Z,40.50
2018-03-10T06:04:47.969Z,36.63
2018-03-10T06:07:15.244Z,36.47
2018-03-10T06:09:42.513Z,34.23
2018-03-10T06:12:09.785Z,34.53
2018-03-10T06:14:37.077Z,31.67
2018-03-10T06:17:04.346Z,40.57
2018-03-10T06:19:31.632Z,34.03
2018-03-10T06:21:58.896Z,34.53
2018-03-10T06:24:26.160Z,31.23
2018-03-10T06:26:53.452Z,27.87
2018-03-10T06:29:20.720Z,33.70
2018-03-10T06:31:48.001Z,32.40
2018-03-10T06:34:15.336Z,28.73
2018-03-10T06:36:42.688Z,29.20
2018-03-10T06:39:09.958Z,30.83
2018-03-10T06:41:37.234Z,32.67
2018-03-10T06:44:04.588Z,30.67
2018-03-10T06:46:31.844Z,25.03
2018-03-10T06:48:59.143Z,25.70
2018-03-10T06:51:26.428Z,27.00
2018-03-10T06:53:53.716Z,24.43
2018-03-10T06:56:21.004Z,24.17
2018-03-10T06:58:48.270Z,26.57
2018-03-10T07:01:15.537Z,24.27
2018-03-10T07:03:42.823Z,17.90
2018-03-10T07:06:10.122Z,21.43
2018-03-10T07:08:37.414Z,18.43
2018-03-10T07:11:04.711Z,19.57
2018-03-10T07:13:31.970Z,19.87
2018-03-10T07:15:59.267Z,18.40
2018-03-10T07:18:26.557Z,17.00
2018-03-10T07:20:53.824Z,18.57
2018-03-10T07:23:21.105Z,19.27
2018-03-10T07:25:48.368Z,19.63
2018-03-10T07:28:15.661Z,19.67
2018-03-10T07:30:42.930Z,21.50
2018-03-10T07:33:10.224Z,20.63
2018-03-10T07:35:37.517Z,15.00
2018-03-10T07:38:04.804Z,19.37
2018-03-10T07:40:32.073Z,28.57
2018-03-10T07:42:59.433Z,18.10
2018-03-10T07:45:26.638Z,17.20
2018-03-10T07:47:53.932Z,14.30
2018-03-10T07:50:21.225Z,14.90
2018-03-10T07:52:48.546Z,13.87
2018-03-10T07:55:15.804Z,15.60
2018-03-10T07:57:43.083Z,15.73
2018-03-10T08:00:10.404Z,15.40
2018-03-10T08:02:37.692Z,17.27
2018-03-10T08:05:04.960Z,16.57
2018-03-10T08:07:32.279Z,12.40
2018-03-10T08:09:59.532Z,14.23
2018-03-10T08:12:26.876Z,16.87
2018-03-10T08:14:54.169Z,14.83
2018-03-10T08:17:21.439Z,17.37
2018-03-10T08:19:48.737Z,16.03
2018-03-10T08:22:16.004Z,16.50
2018-03-10T08:24:43.268Z,17.27
2018-03-10T08:27:10.561Z,15.50
2018-03-10T08:29:37.856Z,15.80
2018-03-10T08:32:05.149Z,19.07
2018-03-10T08:34:32.412Z,15.57
2018-03-10T08:36:59.705Z,15.63
2018-03-10T08:39:27.009Z,21.40
2018-03-10T08:41:54.349Z,15.13
2018-03-10T08:44:21.620Z,13.80
2018-03-10T08:46:48.886Z,17.30
2018-03-10T08:49:16.181Z,17.03
2018-03-10T08:51:43.453Z,17.90
2018-03-10T08:54:10.716Z,16.40
2018-03-10T08:56:38.012Z,14.70
2018-03-10T08:59:05.351Z,14.53
2018-03-10T09:01:32.573Z,15.93
2018-03-10T09:03:59.842Z,18.60
2018-03-10T09:06:27.289Z,20.33
2018-03-10T09:08:54.553Z,14.40
2018-03-10T09:11:21.850Z,18.20
2018-03-10T09:13:49.112Z,15.37
2018-03-10T09:16:16.379Z,15.57
2018-03-10T09:18:43.684Z,15.50
2018-03-10T09:21:10.952Z,17.00
2018-03-10T09:23:38.572Z,17.53
2018-03-10T09:26:05.876Z,14.37
2018-03-10T09:28:33.149Z,15.40
2018-03-10T09:31:00.416Z,20.53
2018-03-10T09:33:27.708Z,17.37
2018-03-10T09:35:54.968Z,16.10
2018-03-10T09:38:22.260Z,17.33
2018-03-10T09:40:49.550Z,18.67
2018-03-10T09:43:16.809Z,18.63
2018-03-10T09:45:44.116Z,20.97
2018-03-10T09:48:11.380Z,19.10
2018-03-10T09:50:39.574Z,16.00
2018-03-10T09:53:06.860Z,20.10
2018-03-10T09:55:34.387Z,19.33
2018-03-10T09:58:01.627Z,17.50
2018-03-10T10:00:29.022Z,17.00
2018-03-10T10:02:56.308Z,17.80
2018-03-10T10:05:23.624Z,19.70
2018-03-10T10:07:50.916Z,18.20
2018-03-10T10:10:18.180Z,16.27
2018-03-10T10:12:45.473Z,14.90
2018-03-10T10:15:12.731Z,16.60
2018-03-10T10:17:40.002Z,17.30
2018-03-10T10:20:07.306Z,20.83
2018-03-10T10:22:34.572Z,19.97
2018-03-10T10:25:01.872Z,18.63
2018-03-10T10:27:29.138Z,16.90
2018-03-10T10:29:56.416Z,18.17
2018-03-10T10:32:23.690Z,18.00
2018-03-10T10:34:50.949Z,18.10
2018-03-10T10:37:18.240Z,16.67
2018-03-10T10:39:45.519Z,16.93
2018-03-10T10:42:12.799Z,21.33
2018-03-10T10:44:40.113Z,15.63
2018-03-10T10:47:07.402Z,18.53
2018-03-10T10:49:34.718Z,19.53
2018-03-10T10:52:01.960Z,17.30
2018-03-10T10:54:29.250Z,16.60
2018-03-10T10:56:56.542Z,18.83
2018-03-10T10:59:23.806Z,17.83
2018-03-10T11:01:56.989Z,16.60
2018-03-10T11:04:27.716Z,17.63
2018-03-10T11:06:55.004Z,17.17
2018-03-10T11:09:22.297Z,17.90
2018-03-10T11:11:49.587Z,15.73
2018-03-10T11:14:16.881Z,19.87
2018-03-10T11:16:44.145Z,19.90
2018-03-10T11:19:11.437Z,17.20
2018-03-10T11:21:38.703Z,17.13
2018-03-10T11:24:05.992Z,18.13
2018-03-10T11:26:33.256Z,17.73
2018-03-10T11:29:00.526Z,15.97
2018-03-10T11:31:27.820Z,18.10
2018-03-10T11:33:55.080Z,16.37
2018-03-10T11:36:22.376Z,15.53
2018-03-10T11:38:49.637Z,16.00
2018-03-10T11:41:16.904Z,16.63
2018-03-10T11:43:44.240Z,16.80
2018-03-10T11:46:11.488Z,14.97
2018-03-10T11:48:38.757Z,16.23
2018-03-10T11:51:06.067Z,18.10
2018-03-10T11:53:33.313Z,15.97
2018-03-10T11:56:00.585Z,22.70
2018-03-10T11:58:27.868Z,18.17
2018-03-10T12:00:55.160Z,18.43
2018-03-10T12:03:22.425Z,17.37
2018-03-10T12:05:49.712Z,17.53
2018-03-10T12:08:17.008Z,19.50
2018-03-10T12:10:44.297Z,17.17
2018-03-10T12:13:11.564Z,18.63
2018-03-10T12:15:38.829Z,17.97
2018-03-10T12:18:06.130Z,19.13
2018-03-10T12:20:33.392Z,20.13
2018-03-10T12:23:00.662Z,19.80
2018-03-10T12:25:27.956Z,22.40
2018-03-10T12:27:55.212Z,21.80
2018-03-10T12:30:22.505Z,20.43
2018-03-10T12:32:49.775Z,22.33
2018-03-10T12:35:17.057Z,21.47
2018-03-10T12:37:44.328Z,19.87
2018-03-10T12:40:11.619Z,21.80
2018-03-10T12:42:38.894Z,20.63
2018-03-10T12:45:06.173Z,22.80
2018-03-10T12:47:33.460Z,20.80
2018-03-10T12:50:00.743Z,20.43
2018-03-10T12:52:28.005Z,20.60
2018-03-10T12:54:55.292Z,21.80
2018-03-10T12:57:22.553Z,24.30
2018-03-10T12:59:49.848Z,23.53
2018-03-10T13:02:17.113Z,24.27
2018-03-10T13:04:44.401Z,26.13
2018-03-10T13:07:11.690Z,21.53
2018-03-10T13:09:38.957Z,20.33
2018-03-10T13:12:06.505Z,22.97
2018-03-10T13:14:33.768Z,23.07
2018-03-10T13:17:01.033Z,21.03
2018-03-10T13:19:28.484Z,23.07
2018-03-10T13:21:55.781Z,23.37
2018-03-10T13:24:23.081Z,22.07
2018-03-10T13:26:50.344Z,21.63
2018-03-10T13:29:17.637Z,20.50
2018-03-10T13:31:44.900Z,23.00
2018-03-10T13:34:12.196Z,20.23
2018-03-10T13:36:39.487Z,21.00
2018-03-10T13:39:06.772Z,21.70
2018-03-10T13:41:34.040Z,23.27
2018-03-10T13:44:01.365Z,22.57
2018-03-10T13:46:28.645Z,24.70
2018-03-10T13:48:55.913Z,19.20
2018-03-10T13:51:23.221Z,20.60
2018-03-10T13:53:50.467Z,25.03
2018-03-10T13:56:17.760Z,22.50
2018-03-10T13:58:45.025Z,22.77
2018-03-10T14:01:12.325Z,20.83
2018-03-10T14:03:45.385Z,17.47
2018-03-10T14:06:12.667Z,17.07
2018-03-10T14:08:39.932Z,15.33
2018-03-10T14:11:07.234Z,16.70
2018-03-10T14:13:34.497Z,14.27
2018-03-10T14:16:01.861Z,11.93
2018-03-10T14:18:29.049Z,11.57
2018-03-10T14:20:56.344Z,12.57
2018-03-10T14:23:23.604Z,13.00
2018-03-10T14:25:50.900Z,12.60
2018-03-10T14:28:18.156Z,10.57
2018-03-10T14:30:45.420Z,10.87
2018-03-10T14:33:12.691Z,9.40
2018-03-10T14:35:39.955Z,10.80
2018-03-10T14:38:07.232Z,11.80
2018-03-10T14:40:34.488Z,8.63
2018-03-10T14:45:35.341Z,9.33
2018-03-10T14:48:02.621Z,9.20
2018-03-10T14:50:29.896Z,7.20
2018-03-10T14:52:57.157Z,7.50
2018-03-10T14:55:24.428Z,7.17
2018-03-10T14:57:51.677Z,6.20
2018-03-10T15:00:18.969Z,7.13
2018-03-10T15:02:46.377Z,6.20
2018-03-10T15:05:13.624Z,6.10
2018-03-10T15:07:40.876Z,5.70
2018-03-10T15:10:08.178Z,6.10
2018-03-10T15:12:35.400Z,9.77
2018-03-10T15:15:02.650Z,4.97
2018-03-10T15:17:29.929Z,5.70
2018-03-10T15:19:57.183Z,4.27
2018-03-10T15:22:24.454Z,3.70
2018-03-10T15:24:51.704Z,3.80
2018-03-10T15:27:18.981Z,5.10
2018-03-10T15:29:46.233Z,4.67
2018-03-10T15:32:13.515Z,3.63
2018-03-10T15:34:40.796Z,5.63
2018-03-10T15:37:08.056Z,3.93
2018-03-10T15:39:35.341Z,3.90
2018-03-10T15:42:02.588Z,5.00
2018-03-10T15:44:29.874Z,5.00
2018-03-10T15:46:57.116Z,5.63
2018-03-10T15:49:24.395Z,5.90
2018-03-10T15:51:51.644Z,5.03
2018-03-10T15:54:18.916Z,5.40
2018-03-10T15:56:46.201Z,6.77
2018-03-10T15:59:13.487Z,6.27
2018-03-10T16:01:40.735Z,5.80
2018-03-10T16:04:07.995Z,6.13
2018-03-10T16:06:35.274Z,4.40
2018-03-10T16:09:02.528Z,4.80
2018-03-10T16:11:29.801Z,5.10
2018-03-10T16:13:57.044Z,3.73
2018-03-10T16:16:24.320Z,4.53
2018-03-10T16:18:51.580Z,5.03
2018-03-10T16:21:18.832Z,4.37
2018-03-10T16:23:46.113Z,5.17
2018-03-10T16:26:13.366Z,5.20
2018-03-10T16:28:40.614Z,5.07
2018-03-10T16:31:07.884Z,5.27
2018-03-10T16:33:35.141Z,10.90
2018-03-10T16:36:02.428Z,4.97
2018-03-10T16:38:29.678Z,7.50
2018-03-10T16:40:56.921Z,5.23
2018-03-10T16:43:24.205Z,5.27
2018-03-10T16:45:51.489Z,5.57
2018-03-10T16:48:18.732Z,5.67
2018-03-10T16:50:45.994Z,4.93
2018-03-10T16:53:13.273Z,5.03
2018-03-10T16:55:40.528Z,6.03
2018-03-10T16:58:07.809Z,6.20
2018-03-10T17:00:35.073Z,6.00
2018-03-10T17:03:02.349Z,6.23
2018-03-10T17:05:29.636Z,5.40
2018-03-10T17:07:56.880Z,6.23
2018-03-10T17:10:24.165Z,7.33
2018-03-10T17:12:52.260Z,6.97
2018-03-10T17:15:19.556Z,6.50
2018-03-10T17:17:46.827Z,6.60
2018-03-10T17:20:14.085Z,7.57
2018-03-10T17:22:41.369Z,8.10
2018-03-10T17:25:08.641Z,14.03
2018-03-10T17:27:35.904Z,12.73
2018-03-10T17:30:03.186Z,10.60
2018-03-10T17:32:30.444Z,10.33
2018-03-10T17:34:57.736Z,11.50
2018-03-10T17:37:24.993Z,9.63
2018-03-10T17:39:52.267Z,8.23
2018-03-10T17:42:19.548Z,9.27
2018-03-10T17:44:46.788Z,9.17
2018-03-10T17:47:14.082Z,9.03
2018-03-10T17:49:41.339Z,9.20
2018-03-10T17:52:08.588Z,10.37
2018-03-10T17:54:35.881Z,10.43
2018-03-10T17:57:03.152Z,10.93
2018-03-10T17:59:30.444Z,11.73
2018-03-10T18:01:57.705Z,10.37
2018-03-10T18:04:24.966Z,10.10
2018-03-10T18:06:52.258Z,10.43
2018-03-10T18:09:19.541Z,11.50
2018-03-10T18:11:46.806Z,10.70
2018-03-10T18:14:14.077Z,11.77
2018-03-10T18:16:41.373Z,13.63
2018-03-10T18:19:08.633Z,12.53
2018-03-10T18:21:35.924Z,11.63
2018-03-10T18:24:03.202Z,12.73
2018-03-10T18:26:30.489Z,12.50
2018-03-10T18:28:57.754Z,13.90
2018-03-10T18:31:25.016Z,13.47
2018-03-10T18:33:52.319Z,16.47
2018-03-10T18:36:19.595Z,16.17
2018-03-10T18:38:46.881Z,14.93
2018-03-10T18:41:14.145Z,14.73
2018-03-10T18:43:41.433Z,14.83
2018-03-10T18:46:08.720Z,16.00
2018-03-10T18:48:35.993Z,14.50
2018-03-10T18:51:03.292Z,13.10
2018-03-10T18:53:30.553Z,15.07
2018-03-10T18:55:57.820Z,16.80
2018-03-10T18:58:25.140Z,13.27
2018-03-10T19:00:52.381Z,11.80
2018-03-10T19:03:20.054Z,12.13
2018-03-10T19:05:47.316Z,16.53
2018-03-10T19:08:14.620Z,15.40
2018-03-10T19:10:41.880Z,13.53
2018-03-10T19:13:09.141Z,15.30
2018-03-10T19:15:36.412Z,14.07
2018-03-10T19:18:03.707Z,12.80
2018-03-10T19:20:30.972Z,13.47
2018-03-10T19:22:58.477Z,18.80
2018-03-10T19:25:26.040Z,14.93
2018-03-10T19:27:53.301Z,12.00
2018-03-10T19:30:20.566Z,15.97
2018-03-10T19:32:47.875Z,24.83
2018-03-10T19:35:15.174Z,14.73
2018-03-10T19:37:42.442Z,14.47
2018-03-10T19:40:09.706Z,17.67
2018-03-10T19:42:37.001Z,19.10
2018-03-10T19:45:04.266Z,18.17
2018-03-10T19:47:31.536Z,18.47
2018-03-10T19:49:58.828Z,18.07
2018-03-10T19:52:26.121Z,18.50
2018-03-10T19:54:53.384Z,16.70
2018-03-10T19:57:20.692Z,20.90
2018-03-10T19:59:47.957Z,18.07
2018-03-10T20:02:15.216Z,17.87
2018-03-10T20:04:42.586Z,18.87
2018-03-10T20:07:09.860Z,22.07
2018-03-10T20:09:37.128Z,21.13
2018-03-10T20:12:04.388Z,24.40
2018-03-10T20:14:31.688Z,23.93
2018-03-10T20:16:58.983Z,24.23
2018-03-10T20:19:26.246Z,20.27
2018-03-10T20:21:53.513Z,20.80
2018-03-10T20:24:20.961Z,25.40
2018-03-10T20:26:48.085Z,18.73
2018-03-10T20:29:15.348Z,25.27
2018-03-10T20:31:42.661Z,23.87
2018-03-10T20:34:09.928Z,27.47
2018-03-10T20:36:37.204Z,23.97
2018-03-10T20:39:04.496Z,23.60
2018-03-10T20:41:31.764Z,23.73
2018-03-10T20:43:59.268Z,22.90
2018-03-10T20:46:26.769Z,22.73
2018-03-10T20:48:54.038Z,30.17
2018-03-10T20:51:21.846Z,22.17
2018-03-10T20:53:49.096Z,27.13
2018-03-10T20:56:16.370Z,21.97
2018-03-10T20:58:43.669Z,23.57
2018-03-10T21:01:10.932Z,21.57
2018-03-10T21:03:38.208Z,23.33
2018-03-10T21:06:05.509Z,24.53
2018-03-10T21:08:32.769Z,21.03
2018-03-10T21:11:00.043Z,22.57
2018-03-10T21:13:27.329Z,25.83
2018-03-10T21:15:54.589Z,23.60
2018-03-10T21:18:21.893Z,28.27
2018-03-10T21:20:49.187Z,18.77
2018-03-10T21:23:16.463Z,39.90
2018-03-10T21:25:43.717Z,22.03
2018-03-10T21:28:11.006Z,23.10
2018-03-10T21:30:38.271Z,21.30
2018-03-10T21:33:05.565Z,24.20
2018-03-10T21:35:32.870Z,22.67
2018-03-10T21:38:00.130Z,23.50
2018-03-10T21:40:27.421Z,23.83
2018-03-10T21:42:54.705Z,20.47
2018-03-10T21:45:22.008Z,23.50
2018-03-10T21:47:49.457Z,23.27
2018-03-10T21:50:16.720Z,27.50
2018-03-10T21:52:43.985Z,24.37
2018-03-10T21:55:11.352Z,26.47
2018-03-10T21:57:38.564Z,25.80
2018-03-10T22:00:05.935Z,25.83
2018-03-10T22:02:33.145Z,30.53
2018-03-10T22:05:00.428Z,24.80
2018-03-10T22:07:27.693Z,25.80
2018-03-10T22:09:55.004Z,25.33
2018-03-10T22:12:22.251Z,26.77
2018-03-10T22:14:49.544Z,26.33
2018-03-10T22:17:16.858Z,23.20
2018-03-10T22:19:44.092Z,27.83
2018-03-10T22:22:11.423Z,29.27
2018-03-10T22:24:38.664Z,23.47
2018-03-10T22:27:05.949Z,27.03
2018-03-10T22:29:33.285Z,28.90
2018-03-10T22:32:00.488Z,26.57
2018-03-10T22:34:31.348Z,26.47
2018-03-10T22:36:58.609Z,33.73
2018-03-10T22:39:25.972Z,32.43
2018-03-10T22:41:53.238Z,31.23
2018-03-10T22:44:20.500Z,34.10
2018-03-10T22:46:47.793Z,42.47
2018-03-10T22:49:15.062Z,36.27
2018-03-10T22:51:42.369Z,33.13
2018-03-10T22:54:09.624Z,33.73
2018-03-10T22:56:36.931Z,29.00
2018-03-10T22:59:04.219Z,37.23
2018-03-10T23:01:31.492Z,31.00
2018-03-10T23:03:58.784Z,43.60
2018-03-10T23:06:26.074Z,41.23
2018-03-10T23:08:53.333Z,32.03
2018-03-10T23:11:20.598Z,42.07
2018-03-10T23:13:47.893Z,34.10
2018-03-10T23:16:15.165Z,39.47
2018-03-10T23:18:42.461Z,39.13
2018-03-10T23:21:09.720Z,29.13
2018-03-10T23:23:37.162Z,33.33
2018-03-10T23:26:04.273Z,45.57
2018-03-10T23:28:31.545Z,34.23
2018-03-10T23:30:58.834Z,31.70
2018-03-10T23:33:26.120Z,33.47
2018-03-10T23:35:53.412Z,33.60
2018-03-10T23:38:20.685Z,29.53
2018-03-10T23:40:47.969Z,29.03
2018-03-10T23:43:15.261Z,28.90
2018-03-10T23:45:42.525Z,34.03
2018-03-10T23:48:09.793Z,33.27
2018-03-10T23:50:37.089Z,27.03
2018-03-10T23:53:04.354Z,36.40
2018-03-10T23:55:31.649Z,29.20
2018-03-10T23:57:58.909Z,35.33
